sensor_id;sensor_type;location;lat;lon;timestamp;P1;durP1;ratioP1;P2;durP2;ratioP2
11588;SDS011;5850;51.360;12.362;2023-04-24T00:00:39;1.50;;;1.40;;
11588;SDS011;5850;51.360;12.362;2023-04-24T00:03:07;1.80;;;1.70;;
11588;SDS011;5850;51.360;12.362;2023-04-24T00:05:37;2.77;;;1.60;;
11588;SDS011;5850;51.360;12.362;2023-04-24T00:08:07;1.87;;;1.67;;
11588;SDS011;5850;51.360;12.362;2023-04-24T00:10:35;1.90;;;1.80;;
11588;SDS011;5850;51.360;12.362;2023-04-24T00:13:04;2.20;;;2.00;;
11588;SDS011;5850;51.360;12.362;2023-04-24T00:15:33;4.80;;;1.90;;
11588;SDS011;5850;51.360;12.362;2023-04-24T00:18:02;1.80;;;1.70;;
11588;SDS011;5850;51.360;12.362;2023-04-24T00:20:31;2.97;;;1.87;;
11588;SDS011;5850;51.360;12.362;2023-04-24T00:23:01;1.57;;;1.47;;
11588;SDS011;5850;51.360;12.362;2023-04-24T00:25:30;2.80;;;2.17;;
11588;SDS011;5850;51.360;12.362;2023-04-24T00:27:59;2.07;;;1.90;;
11588;SDS011;5850;51.360;12.362;2023-04-24T00:30:28;2.17;;;1.97;;
11588;SDS011;5850;51.360;12.362;2023-04-24T00:32:56;2.50;;;1.97;;
11588;SDS011;5850;51.360;12.362;2023-04-24T00:35:25;4.47;;;4.23;;
11588;SDS011;5850;51.360;12.362;2023-04-24T00:37:54;2.20;;;2.00;;
11588;SDS011;5850;51.360;12.362;2023-04-24T00:40:22;1.80;;;1.63;;
11588;SDS011;5850;51.360;12.362;2023-04-24T00:42:51;1.80;;;1.70;;
11588;SDS011;5850;51.360;12.362;2023-04-24T00:45:19;1.90;;;1.70;;
11588;SDS011;5850;51.360;12.362;2023-04-24T00:47:48;2.10;;;1.90;;
11588;SDS011;5850;51.360;12.362;2023-04-24T00:50:16;2.00;;;1.90;;
11588;SDS011;5850;51.360;12.362;2023-04-24T00:52:45;3.27;;;2.23;;
11588;SDS011;5850;51.360;12.362;2023-04-24T00:55:14;3.80;;;1.83;;
11588;SDS011;5850;51.360;12.362;2023-04-24T00:57:43;3.20;;;1.77;;
11588;SDS011;5850;51.360;12.362;2023-04-24T01:00:13;2.57;;;1.97;;
11588;SDS011;5850;51.360;12.362;2023-04-24T01:02:45;2.30;;;2.10;;
11588;SDS011;5850;51.360;12.362;2023-04-24T01:05:15;2.23;;;2.10;;
11588;SDS011;5850;51.360;12.362;2023-04-24T01:07:45;2.10;;;1.80;;
11588;SDS011;5850;51.360;12.362;2023-04-24T01:10:15;1.90;;;1.70;;
11588;SDS011;5850;51.360;12.362;2023-04-24T01:12:44;2.60;;;2.40;;
11588;SDS011;5850;51.360;12.362;2023-04-24T01:15:13;1.90;;;1.80;;
11588;SDS011;5850;51.360;12.362;2023-04-24T01:17:42;1.93;;;1.73;;
11588;SDS011;5850;51.360;12.362;2023-04-24T01:20:11;1.60;;;1.50;;
11588;SDS011;5850;51.360;12.362;2023-04-24T01:22:40;2.40;;;2.13;;
11588;SDS011;5850;51.360;12.362;2023-04-24T01:25:09;4.90;;;1.83;;
11588;SDS011;5850;51.360;12.362;2023-04-24T01:27:38;1.83;;;1.70;;
11588;SDS011;5850;51.360;12.362;2023-04-24T01:30:07;1.53;;;1.43;;
11588;SDS011;5850;51.360;12.362;2023-04-24T01:32:36;2.00;;;1.80;;
11588;SDS011;5850;51.360;12.362;2023-04-24T01:35:05;1.60;;;1.50;;
11588;SDS011;5850;51.360;12.362;2023-04-24T01:37:34;1.30;;;1.30;;
11588;SDS011;5850;51.360;12.362;2023-04-24T01:40:05;1.60;;;1.50;;
11588;SDS011;5850;51.360;12.362;2023-04-24T01:42:34;1.90;;;1.70;;
11588;SDS011;5850;51.360;12.362;2023-04-24T01:45:04;1.93;;;1.53;;
11588;SDS011;5850;51.360;12.362;2023-04-24T01:47:33;1.47;;;1.37;;
11588;SDS011;5850;51.360;12.362;2023-04-24T01:50:02;1.40;;;1.30;;
11588;SDS011;5850;51.360;12.362;2023-04-24T01:52:31;1.70;;;1.60;;
11588;SDS011;5850;51.360;12.362;2023-04-24T01:55:02;1.40;;;1.30;;
11588;SDS011;5850;51.360;12.362;2023-04-24T01:57:31;1.73;;;1.57;;
11588;SDS011;5850;51.360;12.362;2023-04-24T02:00:00;1.57;;;1.47;;
11588;SDS011;5850;51.360;12.362;2023-04-24T02:02:30;1.60;;;1.50;;
11588;SDS011;5850;51.360;12.362;2023-04-24T02:04:59;1.77;;;1.67;;
11588;SDS011;5850;51.360;12.362;2023-04-24T02:07:29;1.53;;;1.43;;
11588;SDS011;5850;51.360;12.362;2023-04-24T02:09:58;4.03;;;1.47;;
11588;SDS011;5850;51.360;12.362;2023-04-24T02:12:27;2.43;;;1.40;;
11588;SDS011;5850;51.360;12.362;2023-04-24T02:14:56;1.87;;;1.53;;
11588;SDS011;5850;51.360;12.362;2023-04-24T02:17:24;1.33;;;1.23;;
11588;SDS011;5850;51.360;12.362;2023-04-24T02:19:52;2.27;;;1.27;;
11588;SDS011;5850;51.360;12.362;2023-04-24T02:22:21;3.70;;;1.37;;
11588;SDS011;5850;51.360;12.362;2023-04-24T02:24:50;1.50;;;1.40;;
11588;SDS011;5850;51.360;12.362;2023-04-24T02:27:18;1.90;;;1.40;;
11588;SDS011;5850;51.360;12.362;2023-04-24T02:29:46;1.53;;;1.40;;
11588;SDS011;5850;51.360;12.362;2023-04-24T02:32:15;3.13;;;2.07;;
11588;SDS011;5850;51.360;12.362;2023-04-24T02:34:43;1.87;;;1.60;;
11588;SDS011;5850;51.360;12.362;2023-04-24T02:37:12;1.60;;;1.50;;
11588;SDS011;5850;51.360;12.362;2023-04-24T02:39:40;1.43;;;1.33;;
11588;SDS011;5850;51.360;12.362;2023-04-24T02:42:08;1.67;;;1.57;;
11588;SDS011;5850;51.360;12.362;2023-04-24T02:44:37;2.83;;;1.57;;
11588;SDS011;5850;51.360;12.362;2023-04-24T02:47:05;2.00;;;1.53;;
11588;SDS011;5850;51.360;12.362;2023-04-24T02:49:34;1.60;;;1.50;;
11588;SDS011;5850;51.360;12.362;2023-04-24T02:52:03;2.13;;;1.60;;
11588;SDS011;5850;51.360;12.362;2023-04-24T02:54:32;1.80;;;1.70;;
11588;SDS011;5850;51.360;12.362;2023-04-24T02:57:00;1.83;;;1.53;;
11588;SDS011;5850;51.360;12.362;2023-04-24T02:59:29;2.13;;;1.37;;
11588;SDS011;5850;51.360;12.362;2023-04-24T03:01:58;1.87;;;1.30;;
11588;SDS011;5850;51.360;12.362;2023-04-24T03:04:26;1.70;;;1.60;;
11588;SDS011;5850;51.360;12.362;2023-04-24T03:06:55;2.70;;;1.57;;
11588;SDS011;5850;51.360;12.362;2023-04-24T03:09:24;2.07;;;1.90;;
11588;SDS011;5850;51.360;12.362;2023-04-24T03:11:52;1.70;;;1.60;;
11588;SDS011;5850;51.360;12.362;2023-04-24T03:14:21;2.00;;;1.80;;
11588;SDS011;5850;51.360;12.362;2023-04-24T03:16:50;3.40;;;1.70;;
11588;SDS011;5850;51.360;12.362;2023-04-24T03:19:18;1.80;;;1.70;;
11588;SDS011;5850;51.360;12.362;2023-04-24T03:21:47;2.23;;;1.50;;
11588;SDS011;5850;51.360;12.362;2023-04-24T03:24:16;3.73;;;1.63;;
11588;SDS011;5850;51.360;12.362;2023-04-24T03:26:44;1.50;;;1.40;;
11588;SDS011;5850;51.360;12.362;2023-04-24T03:29:12;2.87;;;1.70;;
11588;SDS011;5850;51.360;12.362;2023-04-24T03:31:41;2.10;;;1.47;;
11588;SDS011;5850;51.360;12.362;2023-04-24T03:34:10;1.63;;;1.53;;
11588;SDS011;5850;51.360;12.362;2023-04-24T03:36:39;1.57;;;1.47;;
11588;SDS011;5850;51.360;12.362;2023-04-24T03:39:07;2.63;;;1.83;;
11588;SDS011;5850;51.360;12.362;2023-04-24T03:41:36;1.87;;;1.40;;
11588;SDS011;5850;51.360;12.362;2023-04-24T03:44:04;2.07;;;1.60;;
11588;SDS011;5850;51.360;12.362;2023-04-24T03:46:33;2.03;;;1.53;;
11588;SDS011;5850;51.360;12.362;2023-04-24T03:49:02;2.20;;;2.00;;
11588;SDS011;5850;51.360;12.362;2023-04-24T03:51:30;1.60;;;1.50;;
11588;SDS011;5850;51.360;12.362;2023-04-24T03:53:58;2.20;;;1.47;;
11588;SDS011;5850;51.360;12.362;2023-04-24T03:56:27;1.70;;;1.60;;
11588;SDS011;5850;51.360;12.362;2023-04-24T03:58:56;1.67;;;1.57;;
11588;SDS011;5850;51.360;12.362;2023-04-24T04:01:24;3.00;;;1.53;;
11588;SDS011;5850;51.360;12.362;2023-04-24T04:03:54;1.70;;;1.60;;
11588;SDS011;5850;51.360;12.362;2023-04-24T04:06:22;2.07;;;1.60;;
11588;SDS011;5850;51.360;12.362;2023-04-24T04:08:51;2.67;;;1.80;;
11588;SDS011;5850;51.360;12.362;2023-04-24T04:11:19;1.80;;;1.70;;
11588;SDS011;5850;51.360;12.362;2023-04-24T04:13:48;2.90;;;1.80;;
11588;SDS011;5850;51.360;12.362;2023-04-24T04:16:17;1.93;;;1.83;;
11588;SDS011;5850;51.360;12.362;2023-04-24T04:18:46;1.70;;;1.60;;
11588;SDS011;5850;51.360;12.362;2023-04-24T04:21:14;1.90;;;1.80;;
11588;SDS011;5850;51.360;12.362;2023-04-24T04:23:43;1.70;;;1.53;;
11588;SDS011;5850;51.360;12.362;2023-04-24T04:26:11;1.93;;;1.40;;
11588;SDS011;5850;51.360;12.362;2023-04-24T04:28:40;2.07;;;1.80;;
11588;SDS011;5850;51.360;12.362;2023-04-24T04:31:10;3.43;;;1.53;;
11588;SDS011;5850;51.360;12.362;2023-04-24T04:33:39;1.73;;;1.60;;
11588;SDS011;5850;51.360;12.362;2023-04-24T04:36:07;2.53;;;1.63;;
11588;SDS011;5850;51.360;12.362;2023-04-24T04:38:36;2.13;;;1.80;;
11588;SDS011;5850;51.360;12.362;2023-04-24T04:41:08;2.37;;;1.50;;
11588;SDS011;5850;51.360;12.362;2023-04-24T04:43:37;1.47;;;1.33;;
11588;SDS011;5850;51.360;12.362;2023-04-24T04:46:06;1.60;;;1.50;;
11588;SDS011;5850;51.360;12.362;2023-04-24T04:48:37;1.57;;;1.40;;
11588;SDS011;5850;51.360;12.362;2023-04-24T04:51:05;2.87;;;1.70;;
11588;SDS011;5850;51.360;12.362;2023-04-24T04:53:34;3.47;;;1.60;;
11588;SDS011;5850;51.360;12.362;2023-04-24T04:56:02;2.03;;;1.60;;
11588;SDS011;5850;51.360;12.362;2023-04-24T04:58:31;3.67;;;2.00;;
11588;SDS011;5850;51.360;12.362;2023-04-24T05:01:00;1.60;;;1.50;;
11588;SDS011;5850;51.360;12.362;2023-04-24T05:03:28;5.83;;;1.73;;
11588;SDS011;5850;51.360;12.362;2023-04-24T05:05:57;4.13;;;1.17;;
11588;SDS011;5850;51.360;12.362;2023-04-24T05:08:26;2.70;;;1.50;;
11588;SDS011;5850;51.360;12.362;2023-04-24T05:10:54;2.23;;;1.60;;
11588;SDS011;5850;51.360;12.362;2023-04-24T05:13:23;1.87;;;1.60;;
11588;SDS011;5850;51.360;12.362;2023-04-24T05:16:04;3.00;;;1.43;;
11588;SDS011;5850;51.360;12.362;2023-04-24T05:18:32;1.67;;;1.30;;
11588;SDS011;5850;51.360;12.362;2023-04-24T05:21:01;1.77;;;1.67;;
11588;SDS011;5850;51.360;12.362;2023-04-24T05:23:29;1.70;;;1.60;;
11588;SDS011;5850;51.360;12.362;2023-04-24T05:25:58;1.90;;;1.40;;
11588;SDS011;5850;51.360;12.362;2023-04-24T05:28:26;2.27;;;1.60;;
11588;SDS011;5850;51.360;12.362;2023-04-24T05:30:55;1.73;;;1.60;;
11588;SDS011;5850;51.360;12.362;2023-04-24T05:33:25;2.10;;;1.90;;
11588;SDS011;5850;51.360;12.362;2023-04-24T05:35:54;1.67;;;1.57;;
11588;SDS011;5850;51.360;12.362;2023-04-24T05:38:22;1.97;;;1.60;;
11588;SDS011;5850;51.360;12.362;2023-04-24T05:40:51;3.13;;;1.30;;
11588;SDS011;5850;51.360;12.362;2023-04-24T05:43:20;1.60;;;1.50;;
11588;SDS011;5850;51.360;12.362;2023-04-24T05:45:48;2.90;;;1.90;;
11588;SDS011;5850;51.360;12.362;2023-04-24T05:48:17;2.20;;;1.70;;
11588;SDS011;5850;51.360;12.362;2023-04-24T05:50:45;1.83;;;1.57;;
11588;SDS011;5850;51.360;12.362;2023-04-24T05:53:14;1.50;;;1.40;;
11588;SDS011;5850;51.360;12.362;2023-04-24T05:55:42;2.20;;;1.57;;
11588;SDS011;5850;51.360;12.362;2023-04-24T05:58:11;2.20;;;1.97;;
11588;SDS011;5850;51.360;12.362;2023-04-24T06:00:40;2.50;;;1.40;;
11588;SDS011;5850;51.360;12.362;2023-04-24T06:03:09;3.50;;;1.40;;
11588;SDS011;5850;51.360;12.362;2023-04-24T06:05:38;2.27;;;1.43;;
11588;SDS011;5850;51.360;12.362;2023-04-24T06:08:07;3.63;;;1.40;;
11588;SDS011;5850;51.360;12.362;2023-04-24T06:10:35;1.63;;;1.23;;
11588;SDS011;5850;51.360;12.362;2023-04-24T06:13:04;1.83;;;1.40;;
11588;SDS011;5850;51.360;12.362;2023-04-24T06:15:33;2.00;;;1.40;;
11588;SDS011;5850;51.360;12.362;2023-04-24T06:18:02;2.47;;;1.30;;
11588;SDS011;5850;51.360;12.362;2023-04-24T06:20:30;2.80;;;1.40;;
11588;SDS011;5850;51.360;12.362;2023-04-24T06:22:59;1.50;;;1.30;;
11588;SDS011;5850;51.360;12.362;2023-04-24T06:25:28;1.57;;;1.47;;
11588;SDS011;5850;51.360;12.362;2023-04-24T06:27:57;1.10;;;1.10;;
11588;SDS011;5850;51.360;12.362;2023-04-24T06:30:25;2.33;;;1.57;;
11588;SDS011;5850;51.360;12.362;2023-04-24T06:32:54;1.13;;;1.07;;
11588;SDS011;5850;51.360;12.362;2023-04-24T06:35:31;1.87;;;1.27;;
11588;SDS011;5850;51.360;12.362;2023-04-24T06:37:59;1.60;;;1.50;;
11588;SDS011;5850;51.360;12.362;2023-04-24T06:40:28;1.50;;;1.40;;
11588;SDS011;5850;51.360;12.362;2023-04-24T06:42:56;1.10;;;1.00;;
11588;SDS011;5850;51.360;12.362;2023-04-24T06:45:26;4.37;;;1.30;;
11588;SDS011;5850;51.360;12.362;2023-04-24T06:47:54;1.37;;;1.27;;
11588;SDS011;5850;51.360;12.362;2023-04-24T06:50:23;2.07;;;1.27;;
11588;SDS011;5850;51.360;12.362;2023-04-24T06:52:52;3.47;;;1.33;;
11588;SDS011;5850;51.360;12.362;2023-04-24T06:55:21;4.33;;;1.97;;
11588;SDS011;5850;51.360;12.362;2023-04-24T06:57:49;2.30;;;1.50;;
11588;SDS011;5850;51.360;12.362;2023-04-24T07:00:18;1.47;;;1.20;;
11588;SDS011;5850;51.360;12.362;2023-04-24T07:02:47;2.97;;;2.00;;
11588;SDS011;5850;51.360;12.362;2023-04-24T07:05:15;4.27;;;1.73;;
11588;SDS011;5850;51.360;12.362;2023-04-24T07:07:46;1.90;;;1.30;;
11588;SDS011;5850;51.360;12.362;2023-04-24T07:10:15;5.63;;;1.67;;
11588;SDS011;5850;51.360;12.362;2023-04-24T07:12:44;2.90;;;2.03;;
11588;SDS011;5850;51.360;12.362;2023-04-24T07:15:13;3.03;;;1.50;;
11588;SDS011;5850;51.360;12.362;2023-04-24T07:17:42;2.27;;;1.40;;
11588;SDS011;5850;51.360;12.362;2023-04-24T07:20:11;3.63;;;1.57;;
11588;SDS011;5850;51.360;12.362;2023-04-24T07:22:40;2.23;;;1.40;;
11588;SDS011;5850;51.360;12.362;2023-04-24T07:25:09;3.17;;;1.30;;
11588;SDS011;5850;51.360;12.362;2023-04-24T07:27:38;2.87;;;1.63;;
11588;SDS011;5850;51.360;12.362;2023-04-24T07:30:06;4.23;;;1.40;;
11588;SDS011;5850;51.360;12.362;2023-04-24T07:32:35;1.83;;;1.53;;
11588;SDS011;5850;51.360;12.362;2023-04-24T07:35:04;3.80;;;1.50;;
11588;SDS011;5850;51.360;12.362;2023-04-24T07:37:33;4.30;;;1.47;;
11588;SDS011;5850;51.360;12.362;2023-04-24T07:40:01;1.87;;;1.20;;
11588;SDS011;5850;51.360;12.362;2023-04-24T07:42:30;2.23;;;1.53;;
11588;SDS011;5850;51.360;12.362;2023-04-24T07:45:00;2.00;;;1.33;;
11588;SDS011;5850;51.360;12.362;2023-04-24T07:47:29;3.60;;;1.37;;
11588;SDS011;5850;51.360;12.362;2023-04-24T07:49:58;4.27;;;1.37;;
11588;SDS011;5850;51.360;12.362;2023-04-24T07:52:27;1.27;;;1.10;;
11588;SDS011;5850;51.360;12.362;2023-04-24T07:54:55;1.20;;;1.07;;
11588;SDS011;5850;51.360;12.362;2023-04-24T07:57:26;1.57;;;1.20;;
11588;SDS011;5850;51.360;12.362;2023-04-24T07:59:55;1.20;;;1.10;;
11588;SDS011;5850;51.360;12.362;2023-04-24T08:02:23;2.57;;;1.40;;
11588;SDS011;5850;51.360;12.362;2023-04-24T08:04:53;5.43;;;1.10;;
11588;SDS011;5850;51.360;12.362;2023-04-24T08:07:25;2.13;;;1.10;;
11588;SDS011;5850;51.360;12.362;2023-04-24T08:09:53;1.90;;;1.10;;
11588;SDS011;5850;51.360;12.362;2023-04-24T08:12:22;0.90;;;0.90;;
11588;SDS011;5850;51.360;12.362;2023-04-24T08:14:50;1.70;;;1.60;;
11588;SDS011;5850;51.360;12.362;2023-04-24T08:17:19;1.00;;;0.90;;
11588;SDS011;5850;51.360;12.362;2023-04-24T08:19:47;1.57;;;0.90;;
11588;SDS011;5850;51.360;12.362;2023-04-24T08:22:17;2.63;;;1.13;;
11588;SDS011;5850;51.360;12.362;2023-04-24T08:24:45;1.23;;;0.80;;
11588;SDS011;5850;51.360;12.362;2023-04-24T08:27:14;2.30;;;0.90;;
11588;SDS011;5850;51.360;12.362;2023-04-24T08:29:43;1.63;;;1.03;;
11588;SDS011;5850;51.360;12.362;2023-04-24T08:32:11;1.90;;;0.70;;
11588;SDS011;5850;51.360;12.362;2023-04-24T08:34:39;1.23;;;0.80;;
11588;SDS011;5850;51.360;12.362;2023-04-24T08:37:08;0.80;;;0.80;;
11588;SDS011;5850;51.360;12.362;2023-04-24T08:39:36;2.17;;;0.87;;
11588;SDS011;5850;51.360;12.362;2023-04-24T08:42:05;0.67;;;0.67;;
11588;SDS011;5850;51.360;12.362;2023-04-24T08:44:34;0.93;;;0.60;;
11588;SDS011;5850;51.360;12.362;2023-04-24T08:47:03;1.17;;;0.90;;
11588;SDS011;5850;51.360;12.362;2023-04-24T08:49:32;1.33;;;0.80;;
11588;SDS011;5850;51.360;12.362;2023-04-24T08:52:01;1.47;;;0.80;;
11588;SDS011;5850;51.360;12.362;2023-04-24T08:54:30;3.60;;;0.77;;
11588;SDS011;5850;51.360;12.362;2023-04-24T08:57:01;1.80;;;0.87;;
11588;SDS011;5850;51.360;12.362;2023-04-24T08:59:30;2.33;;;1.00;;
11588;SDS011;5850;51.360;12.362;2023-04-24T09:01:59;1.37;;;0.80;;
11588;SDS011;5850;51.360;12.362;2023-04-24T09:04:28;2.33;;;0.90;;
11588;SDS011;5850;51.360;12.362;2023-04-24T09:06:58;0.80;;;0.80;;
11588;SDS011;5850;51.360;12.362;2023-04-24T09:09:27;1.43;;;0.97;;
11588;SDS011;5850;51.360;12.362;2023-04-24T09:11:58;1.47;;;0.80;;
11588;SDS011;5850;51.360;12.362;2023-04-24T09:14:27;4.00;;;1.33;;
11588;SDS011;5850;51.360;12.362;2023-04-24T09:16:57;1.20;;;0.80;;
11588;SDS011;5850;51.360;12.362;2023-04-24T09:19:26;1.90;;;1.07;;
11588;SDS011;5850;51.360;12.362;2023-04-24T09:21:54;3.17;;;1.03;;
11588;SDS011;5850;51.360;12.362;2023-04-24T09:24:23;0.90;;;0.90;;
11588;SDS011;5850;51.360;12.362;2023-04-24T09:26:56;0.97;;;0.97;;
11588;SDS011;5850;51.360;12.362;2023-04-24T09:29:27;0.80;;;0.80;;
11588;SDS011;5850;51.360;12.362;2023-04-24T09:31:58;2.20;;;1.13;;
11588;SDS011;5850;51.360;12.362;2023-04-24T09:34:27;1.80;;;1.20;;
11588;SDS011;5850;51.360;12.362;2023-04-24T09:36:55;2.50;;;0.70;;
11588;SDS011;5850;51.360;12.362;2023-04-24T09:39:24;1.20;;;1.10;;
11588;SDS011;5850;51.360;12.362;2023-04-24T09:41:53;1.10;;;1.00;;
11588;SDS011;5850;51.360;12.362;2023-04-24T09:44:24;1.47;;;1.17;;
11588;SDS011;5850;51.360;12.362;2023-04-24T09:46:55;2.07;;;1.00;;
11588;SDS011;5850;51.360;12.362;2023-04-24T09:49:29;0.80;;;0.80;;
11588;SDS011;5850;51.360;12.362;2023-04-24T09:52:06;0.97;;;0.80;;
11588;SDS011;5850;51.360;12.362;2023-04-24T09:54:37;3.43;;;1.00;;
11588;SDS011;5850;51.360;12.362;2023-04-24T09:57:07;1.90;;;1.00;;
11588;SDS011;5850;51.360;12.362;2023-04-24T09:59:41;1.00;;;0.90;;
11588;SDS011;5850;51.360;12.362;2023-04-24T10:02:17;2.77;;;1.40;;
11588;SDS011;5850;51.360;12.362;2023-04-24T10:04:54;1.90;;;1.10;;
11588;SDS011;5850;51.360;12.362;2023-04-24T10:07:26;1.00;;;0.90;;
11588;SDS011;5850;51.360;12.362;2023-04-24T10:09:55;1.97;;;1.10;;
11588;SDS011;5850;51.360;12.362;2023-04-24T10:12:24;2.00;;;1.03;;
11588;SDS011;5850;51.360;12.362;2023-04-24T10:14:55;2.13;;;0.93;;
11588;SDS011;5850;51.360;12.362;2023-04-24T10:17:25;0.80;;;0.80;;
11588;SDS011;5850;51.360;12.362;2023-04-24T10:19:55;2.47;;;1.00;;
11588;SDS011;5850;51.360;12.362;2023-04-24T10:22:23;3.63;;;1.33;;
11588;SDS011;5850;51.360;12.362;2023-04-24T10:24:52;0.97;;;0.90;;
11588;SDS011;5850;51.360;12.362;2023-04-24T10:27:20;3.37;;;0.90;;
11588;SDS011;5850;51.360;12.362;2023-04-24T10:29:49;2.00;;;0.80;;
11588;SDS011;5850;51.360;12.362;2023-04-24T10:32:20;1.00;;;1.00;;
11588;SDS011;5850;51.360;12.362;2023-04-24T10:34:49;1.10;;;1.00;;
11588;SDS011;5850;51.360;12.362;2023-04-24T10:37:17;1.50;;;1.30;;
11588;SDS011;5850;51.360;12.362;2023-04-24T10:39:47;3.80;;;0.90;;
11588;SDS011;5850;51.360;12.362;2023-04-24T10:42:17;0.90;;;0.90;;
11588;SDS011;5850;51.360;12.362;2023-04-24T10:44:47;1.43;;;1.30;;
11588;SDS011;5850;51.360;12.362;2023-04-24T10:47:16;2.83;;;0.90;;
11588;SDS011;5850;51.360;12.362;2023-04-24T10:49:44;1.13;;;1.07;;
11588;SDS011;5850;51.360;12.362;2023-04-24T10:52:13;1.20;;;1.10;;
11588;SDS011;5850;51.360;12.362;2023-04-24T10:54:46;0.93;;;0.93;;
11588;SDS011;5850;51.360;12.362;2023-04-24T10:59:47;1.60;;;0.80;;
11588;SDS011;5850;51.360;12.362;2023-04-24T11:02:38;1.33;;;1.23;;
11588;SDS011;5850;51.360;12.362;2023-04-24T11:05:15;4.07;;;1.27;;
11588;SDS011;5850;51.360;12.362;2023-04-24T11:11:00;1.70;;;1.10;;
11588;SDS011;5850;51.360;12.362;2023-04-24T11:16:28;0.90;;;0.90;;
11588;SDS011;5850;51.360;12.362;2023-04-24T11:19:02;1.70;;;1.13;;
11588;SDS011;5850;51.360;12.362;2023-04-24T11:21:48;1.37;;;1.23;;
11588;SDS011;5850;51.360;12.362;2023-04-24T11:32:27;9.67;;;2.97;;
11588;SDS011;5850;51.360;12.362;2023-04-24T11:37:45;1.33;;;1.10;;
11588;SDS011;5850;51.360;12.362;2023-04-24T11:40:39;0.97;;;0.97;;
11588;SDS011;5850;51.360;12.362;2023-04-24T11:43:08;1.13;;;0.93;;
11588;SDS011;5850;51.360;12.362;2023-04-24T11:45:37;3.30;;;1.07;;
11588;SDS011;5850;51.360;12.362;2023-04-24T11:48:06;2.93;;;1.30;;
11588;SDS011;5850;51.360;12.362;2023-04-24T11:50:34;2.20;;;1.23;;
11588;SDS011;5850;51.360;12.362;2023-04-24T11:53:03;1.50;;;0.93;;
11588;SDS011;5850;51.360;12.362;2023-04-24T11:55:31;1.00;;;1.00;;
11588;SDS011;5850;51.360;12.362;2023-04-24T11:58:00;0.90;;;0.90;;
11588;SDS011;5850;51.360;12.362;2023-04-24T12:00:30;1.10;;;1.00;;
11588;SDS011;5850;51.360;12.362;2023-04-24T12:03:07;1.33;;;1.23;;
11588;SDS011;5850;51.360;12.362;2023-04-24T12:05:38;1.07;;;0.90;;
11588;SDS011;5850;51.360;12.362;2023-04-24T12:08:07;1.03;;;0.93;;
11588;SDS011;5850;51.360;12.362;2023-04-24T12:10:36;0.93;;;0.93;;
11588;SDS011;5850;51.360;12.362;2023-04-24T12:13:04;2.03;;;0.93;;
11588;SDS011;5850;51.360;12.362;2023-04-24T12:15:33;1.20;;;1.10;;
11588;SDS011;5850;51.360;12.362;2023-04-24T12:18:03;3.00;;;1.10;;
11588;SDS011;5850;51.360;12.362;2023-04-24T12:20:32;1.57;;;1.00;;
11588;SDS011;5850;51.360;12.362;2023-04-24T12:23:00;1.17;;;1.07;;
11588;SDS011;5850;51.360;12.362;2023-04-24T12:25:30;1.73;;;1.27;;
11588;SDS011;5850;51.360;12.362;2023-04-24T12:30:33;1.20;;;1.10;;
11588;SDS011;5850;51.360;12.362;2023-04-24T12:33:10;1.20;;;1.10;;
11588;SDS011;5850;51.360;12.362;2023-04-24T12:35:39;1.83;;;1.30;;
11588;SDS011;5850;51.360;12.362;2023-04-24T12:38:09;1.20;;;1.10;;
11588;SDS011;5850;51.360;12.362;2023-04-24T12:40:41;1.30;;;1.20;;
11588;SDS011;5850;51.360;12.362;2023-04-24T12:43:14;1.23;;;1.03;;
11588;SDS011;5850;51.360;12.362;2023-04-24T12:45:45;1.10;;;1.10;;
11588;SDS011;5850;51.360;12.362;2023-04-24T12:48:15;2.40;;;1.30;;
11588;SDS011;5850;51.360;12.362;2023-04-24T12:50:43;1.73;;;0.90;;
11588;SDS011;5850;51.360;12.362;2023-04-24T12:53:12;1.30;;;1.20;;
11588;SDS011;5850;51.360;12.362;2023-04-24T12:55:42;1.27;;;1.17;;
11588;SDS011;5850;51.360;12.362;2023-04-24T12:58:11;1.00;;;0.90;;
11588;SDS011;5850;51.360;12.362;2023-04-24T13:00:40;1.30;;;1.20;;
11588;SDS011;5850;51.360;12.362;2023-04-24T13:03:09;3.17;;;1.47;;
11588;SDS011;5850;51.360;12.362;2023-04-24T13:05:39;0.97;;;0.90;;
11588;SDS011;5850;51.360;12.362;2023-04-24T13:08:07;2.03;;;1.17;;
11588;SDS011;5850;51.360;12.362;2023-04-24T13:10:36;1.37;;;1.20;;
11588;SDS011;5850;51.360;12.362;2023-04-24T13:13:05;1.20;;;1.20;;
11588;SDS011;5850;51.360;12.362;2023-04-24T13:15:34;1.20;;;1.10;;
11588;SDS011;5850;51.360;12.362;2023-04-24T13:18:02;3.17;;;1.00;;
11588;SDS011;5850;51.360;12.362;2023-04-24T13:20:31;3.50;;;1.40;;
11588;SDS011;5850;51.360;12.362;2023-04-24T13:23:01;2.33;;;1.27;;
11588;SDS011;5850;51.360;12.362;2023-04-24T13:25:34;1.47;;;1.20;;
11588;SDS011;5850;51.360;12.362;2023-04-24T13:28:05;1.10;;;1.10;;
11588;SDS011;5850;51.360;12.362;2023-04-24T13:30:33;2.20;;;1.37;;
11588;SDS011;5850;51.360;12.362;2023-04-24T13:33:02;1.40;;;1.30;;
11588;SDS011;5850;51.360;12.362;2023-04-24T13:35:31;1.60;;;1.23;;
11588;SDS011;5850;51.360;12.362;2023-04-24T13:37:59;1.23;;;1.20;;
11588;SDS011;5850;51.360;12.362;2023-04-24T13:40:32;1.27;;;1.20;;
11588;SDS011;5850;51.360;12.362;2023-04-24T13:43:01;1.63;;;1.33;;
11588;SDS011;5850;51.360;12.362;2023-04-24T13:45:30;3.67;;;1.40;;
11588;SDS011;5850;51.360;12.362;2023-04-24T13:47:59;1.40;;;1.30;;
11588;SDS011;5850;51.360;12.362;2023-04-24T13:50:29;0.83;;;0.83;;
11588;SDS011;5850;51.360;12.362;2023-04-24T13:52:57;2.97;;;1.37;;
11588;SDS011;5850;51.360;12.362;2023-04-24T13:55:28;4.63;;;1.50;;
11588;SDS011;5850;51.360;12.362;2023-04-24T13:57:57;2.40;;;1.07;;
11588;SDS011;5850;51.360;12.362;2023-04-24T14:00:25;1.57;;;1.10;;
11588;SDS011;5850;51.360;12.362;2023-04-24T14:02:54;1.40;;;1.10;;
11588;SDS011;5850;51.360;12.362;2023-04-24T14:05:23;1.47;;;0.90;;
11588;SDS011;5850;51.360;12.362;2023-04-24T14:07:51;0.90;;;0.90;;
11588;SDS011;5850;51.360;12.362;2023-04-24T14:10:20;1.17;;;0.70;;
11588;SDS011;5850;51.360;12.362;2023-04-24T14:12:48;2.07;;;0.90;;
11588;SDS011;5850;51.360;12.362;2023-04-24T14:15:17;4.40;;;1.20;;
11588;SDS011;5850;51.360;12.362;2023-04-24T14:17:45;2.50;;;1.10;;
11588;SDS011;5850;51.360;12.362;2023-04-24T14:20:13;1.83;;;1.40;;
11588;SDS011;5850;51.360;12.362;2023-04-24T14:22:43;0.80;;;0.80;;
11588;SDS011;5850;51.360;12.362;2023-04-24T14:25:11;1.47;;;1.13;;
11588;SDS011;5850;51.360;12.362;2023-04-24T14:27:40;1.23;;;1.13;;
11588;SDS011;5850;51.360;12.362;2023-04-24T14:30:09;1.00;;;0.87;;
11588;SDS011;5850;51.360;12.362;2023-04-24T14:32:38;2.17;;;1.07;;
11588;SDS011;5850;51.360;12.362;2023-04-24T14:35:07;3.43;;;1.20;;
11588;SDS011;5850;51.360;12.362;2023-04-24T14:37:36;1.40;;;1.20;;
11588;SDS011;5850;51.360;12.362;2023-04-24T14:40:09;3.40;;;0.83;;
11588;SDS011;5850;51.360;12.362;2023-04-24T14:42:58;0.97;;;0.80;;
11588;SDS011;5850;51.360;12.362;2023-04-24T14:45:27;1.13;;;0.93;;
11588;SDS011;5850;51.360;12.362;2023-04-24T14:47:56;2.73;;;0.90;;
11588;SDS011;5850;51.360;12.362;2023-04-24T14:50:24;4.47;;;0.80;;
11588;SDS011;5850;51.360;12.362;2023-04-24T14:52:55;0.90;;;0.70;;
11588;SDS011;5850;51.360;12.362;2023-04-24T14:55:24;2.00;;;1.10;;
11588;SDS011;5850;51.360;12.362;2023-04-24T14:57:53;1.13;;;0.90;;
11588;SDS011;5850;51.360;12.362;2023-04-24T15:00:22;1.40;;;0.83;;
11588;SDS011;5850;51.360;12.362;2023-04-24T15:02:50;0.70;;;0.70;;
11588;SDS011;5850;51.360;12.362;2023-04-24T15:05:19;0.93;;;0.90;;
11588;SDS011;5850;51.360;12.362;2023-04-24T15:07:48;0.83;;;0.60;;
11588;SDS011;5850;51.360;12.362;2023-04-24T15:10:18;0.73;;;0.73;;
11588;SDS011;5850;51.360;12.362;2023-04-24T15:12:49;0.67;;;0.63;;
11588;SDS011;5850;51.360;12.362;2023-04-24T15:15:18;1.60;;;0.80;;
11588;SDS011;5850;51.360;12.362;2023-04-24T15:17:46;0.40;;;0.40;;
11588;SDS011;5850;51.360;12.362;2023-04-24T15:20:15;0.73;;;0.67;;
11588;SDS011;5850;51.360;12.362;2023-04-24T15:22:44;0.80;;;0.80;;